Time;durP1;ratioP1;P1;durP2;ratioP2;P2;SDS_P1;SDS_P2;PMS_P1;PMS_P2;Temp;Humidity;BMP_temperature;BMP_pressure;BME280_temperature;BME280_humidity;BME280_pressure;Samples;Min_cycle;Max_cycle;Signal;HPM_P1;HPM_P2
2022/07/28 00:00:16;;;;;;;4.90;4.60;;;18.30;99.90;;;;;;4944181;29;20519;-78
2022/07/28 00:02:43;;;;;;;5.30;4.90;;;18.30;99.90;;;;;;4933227;29;20736;-78
2022/07/28 00:05:12;;;;;;;5.00;4.60;;;18.20;99.90;;;;;;4941201;29;20200;-78
2022/07/28 00:07:38;;;;;;;4.93;4.63;;;18.20;99.90;;;;;;4933176;29;20267;-78
2022/07/28 00:10:06;;;;;;;5.10;4.73;;;18.10;99.90;;;;;;4930516;29;20223;-78
2022/07/28 00:12:33;;;;;;;5.43;5.03;;;18.10;99.90;;;;;;4934695;29;20207;-78
2022/07/28 00:15:00;;;;;;;5.57;4.90;;;18.00;99.90;;;;;;4932825;29;20208;-78
2022/07/28 00:17:27;;;;;;;5.50;5.10;;;18.00;99.90;;;;;;4932038;29;20325;-78
2022/07/28 00:19:54;;;;;;;5.10;4.70;;;18.00;99.90;;;;;;4927418;29;20278;-78
2022/07/28 00:22:22;;;;;;;5.60;5.20;;;17.90;99.90;;;;;;4933093;29;20278;-78
2022/07/28 00:24:49;;;;;;;5.13;4.73;;;17.90;99.90;;;;;;4926646;29;20240;-78
2022/07/28 00:27:17;;;;;;;5.40;4.93;;;17.90;99.90;;;;;;4926838;29;20208;-78
2022/07/28 00:29:44;;;;;;;5.47;5.07;;;17.80;99.90;;;;;;4933607;29;20224;-78
2022/07/28 00:32:11;;;;;;;5.17;4.87;;;17.80;99.90;;;;;;4932376;29;20600;-78
2022/07/28 00:34:37;;;;;;;5.70;5.10;;;17.80;99.90;;;;;;4934437;29;20262;-78
2022/07/28 00:37:04;;;;;;;5.70;5.27;;;17.70;99.90;;;;;;4936082;29;20586;-78
2022/07/28 00:39:32;;;;;;;5.10;4.80;;;17.70;99.90;;;;;;4936665;29;20283;-79
2022/07/28 00:42:00;;;;;;;5.37;4.97;;;17.60;99.90;;;;;;4935622;29;20664;-78
2022/07/28 00:44:27;;;;;;;5.37;4.97;;;17.60;99.90;;;;;;4940809;28;20216;-78
2022/07/28 00:46:53;;;;;;;6.33;4.80;;;17.60;99.90;;;;;;4932737;29;20199;-78
2022/07/28 00:49:21;;;;;;;6.73;5.67;;;17.50;99.90;;;;;;4929806;29;20314;-78
2022/07/28 00:51:48;;;;;;;4.70;4.43;;;17.50;99.90;;;;;;4932092;29;20215;-78
2022/07/28 00:54:16;;;;;;;5.20;4.80;;;17.50;99.90;;;;;;4929182;29;20239;-78
2022/07/28 00:56:44;;;;;;;5.23;4.87;;;17.50;99.90;;;;;;4931438;29;20222;-78
2022/07/28 00:59:11;;;;;;;5.30;4.90;;;17.40;99.90;;;;;;4926790;29;21635;-79
2022/07/28 01:01:38;;;;;;;4.13;3.83;;;17.40;99.90;;;;;;4933675;29;20206;-78
2022/07/28 01:04:05;;;;;;;4.03;3.53;;;17.30;99.90;;;;;;4931052;29;20198;-78
2022/07/28 01:06:44;;;;;;;5.17;4.77;;;17.30;99.90;;;;;;4936270;29;20265;-78
2022/07/28 01:09:20;;;;;;;5.47;4.97;;;17.30;99.90;;;;;;4944421;29;20226;-78
2022/07/28 01:11:54;;;;;;;3.93;3.63;;;17.30;99.90;;;;;;4936204;29;20214;-78
2022/07/28 01:14:25;;;;;;;5.53;5.10;;;17.30;99.90;;;;;;4937085;29;20237;-78
2022/07/28 01:16:57;;;;;;;5.17;4.77;;;17.20;99.90;;;;;;4937196;29;20273;-78
2022/07/28 01:19:36;;;;;;;5.20;4.80;;;17.20;99.90;;;;;;4933961;29;20652;-78
2022/07/28 01:22:05;;;;;;;5.00;4.60;;;17.20;99.90;;;;;;4934188;29;20210;-78
2022/07/28 01:24:47;;;;;;;4.97;4.57;;;17.10;99.90;;;;;;4930822;29;20209;-78
2022/07/28 01:27:27;;;;;;;5.67;5.17;;;17.10;99.90;;;;;;4944592;29;20257;-78
2022/07/28 01:30:07;;;;;;;5.47;5.07;;;17.00;99.90;;;;;;4935118;29;20711;-78
2022/07/28 01:32:40;;;;;;;4.83;4.53;;;17.10;99.90;;;;;;4947575;29;20208;-78
2022/07/28 01:35:13;;;;;;;5.30;4.80;;;17.00;99.90;;;;;;4935579;29;20299;-77
2022/07/28 01:37:43;;;;;;;5.07;4.70;;;17.00;99.90;;;;;;4935728;29;20644;-78
2022/07/28 01:40:13;;;;;;;5.30;4.90;;;16.90;99.90;;;;;;4934000;29;20223;-78
2022/07/28 01:42:44;;;;;;;5.00;4.60;;;16.90;99.90;;;;;;4937012;29;20718;-78
2022/07/28 01:45:13;;;;;;;4.83;4.53;;;16.80;99.90;;;;;;4929266;29;20619;-78
2022/07/28 01:47:44;;;;;;;5.00;4.50;;;16.80;99.90;;;;;;4929823;29;20206;-78
2022/07/28 01:50:14;;;;;;;5.27;4.87;;;16.80;99.90;;;;;;4925576;29;20219;-78
2022/07/28 01:52:42;;;;;;;5.40;5.00;;;16.70;99.90;;;;;;4929407;29;20211;-77
2022/07/28 01:55:10;;;;;;;5.40;5.00;;;16.70;99.90;;;;;;4935195;29;20271;-78
2022/07/28 01:57:38;;;;;;;5.80;5.20;;;16.70;99.90;;;;;;4931702;29;20719;-78
2022/07/28 02:00:08;;;;;;;5.53;5.03;;;16.60;99.90;;;;;;4935157;29;20236;-76
2022/07/28 02:02:40;;;;;;;5.63;5.20;;;16.60;99.90;;;;;;4936703;29;20284;-78
2022/07/28 02:05:12;;;;;;;5.73;5.30;;;16.60;99.90;;;;;;4929854;29;20202;-78
2022/07/28 02:07:41;;;;;;;5.87;5.37;;;16.50;99.90;;;;;;4929303;29;20197;-77
2022/07/28 02:10:10;;;;;;;5.83;5.43;;;16.50;99.90;;;;;;4932852;29;20308;-78
2022/07/28 02:12:38;;;;;;;5.53;5.10;;;16.50;99.90;;;;;;4930506;29;20694;-78
2022/07/28 02:15:08;;;;;;;6.00;5.50;;;16.50;99.90;;;;;;4934445;29;20203;-78
2022/07/28 02:17:37;;;;;;;5.70;5.30;;;16.50;99.90;;;;;;4950774;29;20636;-78
2022/07/28 02:20:08;;;;;;;5.70;5.30;;;16.40;99.90;;;;;;4932273;29;20230;-78
2022/07/28 02:22:37;;;;;;;5.50;5.10;;;16.40;99.90;;;;;;4934846;29;20298;-78
2022/07/28 02:25:06;;;;;;;5.57;5.10;;;16.40;99.90;;;;;;4935892;29;20286;-78
2022/07/28 02:27:36;;;;;;;6.00;5.53;;;16.40;99.90;;;;;;4929919;29;20208;-78
2022/07/28 02:30:06;;;;;;;5.97;5.57;;;16.30;99.90;;;;;;4933458;29;20219;-78
2022/07/28 02:32:44;;;;;;;5.83;5.30;;;16.30;99.90;;;;;;4927219;29;20630;-78
2022/07/28 02:35:17;;;;;;;5.70;5.23;;;16.30;99.90;;;;;;4927648;29;20266;-78
2022/07/28 02:37:53;;;;;;;5.80;5.30;;;16.20;99.90;;;;;;4931353;29;20231;-78
2022/07/28 02:40:22;;;;;;;5.70;5.30;;;16.20;99.90;;;;;;4928374;29;20282;-78
2022/07/28 02:42:49;;;;;;;6.20;5.80;;;16.10;99.90;;;;;;4934482;29;20207;-77
2022/07/28 02:45:20;;;;;;;6.30;5.80;;;16.10;99.90;;;;;;4934506;29;20206;-78
2022/07/28 02:47:56;;;;;;;6.10;5.60;;;16.10;99.90;;;;;;4927242;29;20219;-78
2022/07/28 02:50:26;;;;;;;5.83;5.33;;;16.10;99.90;;;;;;4934273;29;20253;-78
2022/07/28 02:52:58;;;;;;;6.50;6.00;;;16.10;99.90;;;;;;4935909;29;20508;-78
2022/07/28 02:55:26;;;;;;;6.57;6.00;;;16.00;99.90;;;;;;4935885;29;20203;-77
2022/07/28 02:57:54;;;;;;;6.27;5.73;;;15.90;99.90;;;;;;4937685;29;20269;-78
2022/07/28 03:00:21;;;;;;;6.47;5.97;;;15.80;99.90;;;;;;4931068;29;20785;-78
2022/07/28 03:02:49;;;;;;;6.00;5.60;;;15.70;99.90;;;;;;4935785;29;20206;-77
2022/07/28 03:05:17;;;;;;;6.40;5.80;;;15.70;99.90;;;;;;4925538;29;20289;-78
2022/07/28 03:07:44;;;;;;;6.10;5.70;;;15.60;99.90;;;;;;4936947;29;20190;-77
2022/07/28 03:10:19;;;;;;;6.30;5.80;;;15.60;99.90;;;;;;4937924;28;20648;-77
2022/07/28 03:12:46;;;;;;;6.70;6.20;;;15.60;99.90;;;;;;4934423;29;20210;-78
2022/07/28 03:15:13;;;;;;;6.23;5.70;;;15.50;99.90;;;;;;4935536;29;20193;-78
2022/07/28 03:17:40;;;;;;;6.57;6.07;;;15.50;99.90;;;;;;4928889;29;20218;-76
2022/07/28 03:20:08;;;;;;;6.40;5.90;;;15.50;99.90;;;;;;4930893;29;20215;-76
2022/07/28 03:22:35;;;;;;;6.30;5.77;;;15.50;99.90;;;;;;4931539;29;20220;-77
2022/07/28 03:25:06;;;;;;;6.67;6.17;;;15.40;99.90;;;;;;4928404;29;20203;-77
2022/07/28 03:27:38;;;;;;;6.80;6.30;;;15.50;99.90;;;;;;4929913;29;20272;-77
2022/07/28 03:30:08;;;;;;;6.40;5.90;;;15.50;99.90;;;;;;4924011;29;20219;-77
2022/07/28 03:32:38;;;;;;;6.03;5.53;;;15.40;99.90;;;;;;4929372;29;20199;-76
2022/07/28 03:35:06;;;;;;;5.90;5.50;;;15.40;99.90;;;;;;4925879;29;20207;-77
2022/07/28 03:37:37;;;;;;;6.53;6.03;;;15.30;99.90;;;;;;4933487;29;20223;-77
2022/07/28 03:40:08;;;;;;;5.93;5.53;;;15.30;99.90;;;;;;4930742;29;20225;-76
2022/07/28 03:42:37;;;;;;;5.93;5.53;;;15.30;99.90;;;;;;4930760;29;20214;-77
2022/07/28 03:45:06;;;;;;;7.00;6.40;;;15.20;99.90;;;;;;4928880;29;20204;-77
2022/07/28 03:47:32;;;;;;;6.90;6.30;;;15.20;99.90;;;;;;4933363;29;20725;-76
2022/07/28 03:49:59;;;;;;;7.70;7.03;;;15.20;99.90;;;;;;4931964;29;20223;-77
2022/07/28 03:52:26;;;;;;;7.37;6.60;;;15.20;99.90;;;;;;4929064;29;20262;-77
2022/07/28 03:54:53;;;;;;;7.07;6.47;;;15.10;99.90;;;;;;4927932;29;20200;-77
2022/07/28 03:57:20;;;;;;;8.27;6.73;;;15.10;99.90;;;;;;4926469;29;20231;-77
2022/07/28 03:59:48;;;;;;;6.90;6.40;;;15.10;99.90;;;;;;4927126;29;20232;-77
2022/07/28 04:02:15;;;;;;;6.63;6.13;;;15.10;99.90;;;;;;4929198;29;20199;-77
2022/07/28 04:04:41;;;;;;;6.13;5.73;;;15.10;99.90;;;;;;4934233;29;20257;-76
2022/07/28 04:07:08;;;;;;;6.10;5.57;;;15.20;99.90;;;;;;4934439;29;20197;-77
2022/07/28 04:09:35;;;;;;;6.07;5.63;;;15.20;99.90;;;;;;4944799;29;20229;-77
2022/07/28 04:12:02;;;;;;;6.60;6.10;;;15.20;99.90;;;;;;4929587;29;20281;-77
2022/07/28 04:14:28;;;;;;;6.83;6.33;;;15.20;99.90;;;;;;4928490;29;20212;-77
2022/07/28 04:16:56;;;;;;;6.70;6.20;;;15.20;99.90;;;;;;4928376;29;20259;-77
2022/07/28 04:19:23;;;;;;;7.20;6.70;;;15.20;99.90;;;;;;4928803;29;20293;-77
2022/07/28 04:21:50;;;;;;;7.17;6.67;;;15.30;99.90;;;;;;4931731;29;20199;-77
2022/07/28 04:24:17;;;;;;;6.63;6.20;;;15.30;99.90;;;;;;4927468;29;20431;-77
2022/07/28 04:26:43;;;;;;;6.47;5.97;;;15.30;99.90;;;;;;4933061;29;20200;-76
2022/07/28 04:29:10;;;;;;;6.53;6.13;;;15.30;99.90;;;;;;4930322;29;20230;-77
2022/07/28 04:31:37;;;;;;;6.63;6.13;;;15.30;99.90;;;;;;4929641;29;20612;-77
2022/07/28 04:34:05;;;;;;;7.30;6.60;;;15.30;99.90;;;;;;4926600;29;21420;-76
2022/07/28 04:36:33;;;;;;;7.27;6.77;;;15.30;99.90;;;;;;4947842;29;20201;-76
2022/07/28 04:38:59;;;;;;;7.50;6.90;;;15.30;99.90;;;;;;4928900;29;20204;-77
2022/07/28 04:41:26;;;;;;;7.30;6.80;;;15.30;99.90;;;;;;4927692;29;20206;-77
2022/07/28 04:43:53;;;;;;;7.00;6.50;;;15.40;99.90;;;;;;4920711;29;20233;-77
2022/07/28 04:46:20;;;;;;;6.87;6.40;;;15.50;99.90;;;;;;4920579;29;20211;-77
2022/07/28 04:48:47;;;;;;;6.90;6.40;;;15.60;99.90;;;;;;4923511;29;20262;-77
2022/07/28 04:51:15;;;;;;;7.40;6.83;;;15.80;99.90;;;;;;4932868;29;20214;-76
2022/07/28 04:53:42;;;;;;;6.63;6.13;;;15.90;99.90;;;;;;4930460;29;20738;-77
2022/07/28 04:56:08;;;;;;;6.10;5.50;;;16.00;99.90;;;;;;4928072;29;20208;-77
2022/07/28 04:58:35;;;;;;;5.73;5.20;;;16.20;99.90;;;;;;4927640;29;20209;-77
2022/07/28 05:01:02;;;;;;;6.53;6.03;;;16.30;99.90;;;;;;4926561;29;20711;-77
2022/07/28 05:03:29;;;;;;;5.60;5.20;;;16.50;99.90;;;;;;4927811;29;20802;-77
2022/07/28 05:05:56;;;;;;;7.57;6.87;;;16.70;99.90;;;;;;4943883;29;20265;-77
2022/07/28 05:08:24;;;;;;;6.33;5.93;;;16.80;99.90;;;;;;4930845;29;20251;-77
2022/07/28 05:10:51;;;;;;;5.20;4.83;;;17.00;99.90;;;;;;4922303;29;20234;-77
2022/07/28 05:13:18;;;;;;;5.60;5.10;;;17.00;99.90;;;;;;4927227;29;20205;-77
2022/07/28 05:15:45;;;;;;;5.97;5.47;;;17.00;99.90;;;;;;4936124;29;20293;-77
2022/07/28 05:18:11;;;;;;;4.80;4.50;;;17.00;99.90;;;;;;4933888;29;20198;-77
2022/07/28 05:20:38;;;;;;;5.93;5.33;;;17.10;99.90;;;;;;4936216;29;20315;-76
2022/07/28 05:23:05;;;;;;;5.80;5.30;;;17.20;99.90;;;;;;4940000;29;20235;-77
2022/07/28 05:25:33;;;;;;;6.93;6.40;;;17.40;99.90;;;;;;4933505;29;20200;-77
2022/07/28 05:28:00;;;;;;;6.83;6.33;;;17.50;99.90;;;;;;4935895;29;20199;-77
2022/07/28 05:30:27;;;;;;;6.97;6.50;;;17.60;99.90;;;;;;4931761;29;20302;-77
2022/07/28 05:32:58;;;;;;;7.10;6.50;;;17.70;99.90;;;;;;4930202;29;20263;-77
2022/07/28 05:35:25;;;;;;;7.20;6.70;;;17.80;99.90;;;;;;4937184;29;20258;-77
2022/07/28 05:37:52;;;;;;;7.30;6.80;;;18.00;99.90;;;;;;4934015;29;20619;-77
2022/07/28 05:40:18;;;;;;;7.43;6.93;;;18.10;99.90;;;;;;4931882;29;20601;-76
2022/07/28 05:42:47;;;;;;;6.80;6.30;;;18.20;99.90;;;;;;4932409;29;20200;-76
2022/07/28 05:45:14;;;;;;;6.50;6.00;;;18.30;99.90;;;;;;4935645;29;20191;-77
2022/07/28 05:47:44;;;;;;;7.10;6.60;;;18.50;99.90;;;;;;4932955;29;20271;-76
2022/07/28 05:50:11;;;;;;;7.23;6.63;;;18.70;99.90;;;;;;4931451;29;20250;-77
2022/07/28 05:52:38;;;;;;;7.23;6.60;;;18.70;99.90;;;;;;4930307;29;20205;-77
2022/07/28 05:55:06;;;;;;;7.00;6.40;;;19.10;99.90;;;;;;4929412;29;20212;-77
2022/07/28 05:57:33;;;;;;;7.30;6.63;;;19.50;99.90;;;;;;4932331;29;20269;-76
2022/07/28 06:00:02;;;;;;;7.47;6.83;;;19.80;99.90;;;;;;4933224;29;20284;-77
2022/07/28 06:02:38;;;;;;;7.37;6.70;;;19.80;99.90;;;;;;4938438;29;20198;-77
2022/07/28 06:05:06;;;;;;;6.90;6.00;;;19.70;99.90;;;;;;4934343;29;20206;-77
2022/07/28 06:07:33;;;;;;;7.43;6.73;;;19.70;99.90;;;;;;4934583;29;20262;-78
2022/07/28 06:10:00;;;;;;;7.73;6.93;;;19.70;99.90;;;;;;4935457;29;20769;-77
2022/07/28 06:12:27;;;;;;;7.10;6.40;;;19.70;99.90;;;;;;4938186;29;20214;-77
2022/07/28 06:14:53;;;;;;;7.27;6.67;;;19.70;99.90;;;;;;4937272;29;20632;-77
2022/07/28 06:17:21;;;;;;;7.30;6.73;;;19.60;99.90;;;;;;4944480;29;20642;-77
2022/07/28 06:19:48;;;;;;;8.43;7.73;;;20.00;99.90;;;;;;4933212;29;20764;-76
2022/07/28 06:22:15;;;;;;;5.47;5.03;;;20.10;99.90;;;;;;4936475;29;20610;-77
2022/07/28 06:24:42;;;;;;;5.57;5.07;;;20.00;99.90;;;;;;4926768;29;20203;-77
2022/07/28 06:27:08;;;;;;;8.10;7.20;;;19.90;99.90;;;;;;4931733;29;20216;-78
2022/07/28 06:29:35;;;;;;;6.03;5.50;;;19.80;99.90;;;;;;4933556;29;20293;-77
2022/07/28 06:32:02;;;;;;;7.40;6.80;;;20.00;99.90;;;;;;4930266;29;20211;-77
2022/07/28 06:34:30;;;;;;;6.83;6.33;;;20.30;99.90;;;;;;4937572;29;20235;-78
2022/07/28 06:36:57;;;;;;;6.83;6.43;;;20.70;99.90;;;;;;4933582;29;20628;-78
2022/07/28 06:39:24;;;;;;;5.90;5.30;;;21.10;99.90;;;;;;4929319;29;20207;-77
2022/07/28 06:41:51;;;;;;;7.17;6.57;;;21.30;99.90;;;;;;4935742;29;20195;-77
2022/07/28 06:44:19;;;;;;;6.90;6.30;;;21.70;99.90;;;;;;4938185;29;20191;-77
2022/07/28 06:46:46;;;;;;;7.67;6.87;;;22.00;99.90;;;;;;4944469;29;20719;-78
2022/07/28 06:49:13;;;;;;;9.63;6.17;;;22.20;99.90;;;;;;4937324;29;20235;-77
2022/07/28 06:51:41;;;;;;;8.17;6.43;;;22.40;99.90;;;;;;4938797;29;20261;-78
2022/07/28 06:54:08;;;;;;;7.07;6.40;;;22.60;99.90;;;;;;4935006;29;20259;-77
2022/07/28 06:56:35;;;;;;;7.83;7.03;;;23.10;99.90;;;;;;4934008;29;20198;-78
2022/07/28 06:59:01;;;;;;;6.63;6.00;;;23.00;99.90;;;;;;4930814;29;20766;-77
2022/07/28 07:01:28;;;;;;;7.50;6.17;;;23.30;99.90;;;;;;4946894;29;20223;-78
2022/07/28 07:03:55;;;;;;;6.60;6.10;;;23.60;99.90;;;;;;4933954;29;20210;-78
2022/07/28 07:06:22;;;;;;;6.00;5.50;;;23.70;99.90;;;;;;4932378;29;20215;-78
2022/07/28 07:08:50;;;;;;;6.10;5.60;;;24.10;99.90;;;;;;4932564;29;20271;-78
2022/07/28 07:11:16;;;;;;;6.73;6.23;;;24.30;99.90;;;;;;4936926;29;20204;-78
2022/07/28 07:13:43;;;;;;;6.93;6.43;;;24.10;99.90;;;;;;4937948;29;20207;-77
2022/07/28 07:16:10;;;;;;;7.30;6.60;;;24.40;99.90;;;;;;4935958;29;20195;-78
2022/07/28 07:18:37;;;;;;;7.23;6.43;;;24.50;99.90;;;;;;4935374;29;20711;-78
2022/07/28 07:21:04;;;;;;;7.17;6.43;;;24.60;99.90;;;;;;4936820;29;20287;-78
2022/07/28 07:23:30;;;;;;;5.40;3.93;;;24.80;99.90;;;;;;4933285;29;20211;-77
2022/07/28 07:25:59;;;;;;;7.83;5.30;;;25.00;99.90;;;;;;4932652;29;20278;-78
2022/07/28 07:28:25;;;;;;;5.93;4.90;;;25.10;99.90;;;;;;4928546;29;20221;-78
2022/07/28 07:30:52;;;;;;;5.90;5.40;;;25.50;99.90;;;;;;4934668;29;20223;-78
2022/07/28 07:33:19;;;;;;;6.20;5.23;;;25.70;99.90;;;;;;4945628;29;20232;-78
2022/07/28 07:35:46;;;;;;;5.60;3.87;;;25.80;99.50;;;;;;4931355;29;20211;-78
2022/07/28 07:38:13;;;;;;;7.53;6.87;;;26.10;99.90;;;;;;4944837;28;20258;-78
2022/07/28 07:40:40;;;;;;;8.57;7.60;;;26.40;99.40;;;;;;4948253;29;20267;-78
2022/07/28 07:43:08;;;;;;;8.07;7.30;;;26.30;99.10;;;;;;4939187;29;20258;-78
2022/07/28 07:45:34;;;;;;;8.53;7.70;;;26.40;98.60;;;;;;4934328;29;20282;-79
2022/07/28 07:48:02;;;;;;;7.13;6.43;;;26.20;99.30;;;;;;4935207;29;20196;-78
2022/07/28 07:50:29;;;;;;;7.97;7.17;;;26.50;99.20;;;;;;4930394;29;20640;-78
2022/07/28 07:52:56;;;;;;;7.07;6.57;;;25.90;98.70;;;;;;4927345;29;20255;-78
2022/07/28 07:55:23;;;;;;;5.27;4.13;;;26.20;99.40;;;;;;4932472;29;20247;-78
2022/07/28 07:57:50;;;;;;;6.03;4.33;;;26.50;98.80;;;;;;4935297;29;20262;-77
2022/07/28 08:00:18;;;;;;;7.30;4.17;;;26.70;98.90;;;;;;4943009;29;20211;-78
2022/07/28 08:02:45;;;;;;;5.03;4.00;;;27.10;98.10;;;;;;4930997;29;20583;-77
2022/07/28 08:05:12;;;;;;;8.37;7.47;;;27.30;99.00;;;;;;4936653;29;20188;-78
2022/07/28 08:07:39;;;;;;;7.90;6.57;;;27.30;97.60;;;;;;4936741;29;20207;-77
2022/07/28 08:10:07;;;;;;;6.70;6.10;;;27.00;97.30;;;;;;4930094;29;20273;-78
2022/07/28 08:12:34;;;;;;;7.50;6.90;;;26.50;98.70;;;;;;4928760;29;20297;-78
2022/07/28 08:15:01;;;;;;;7.07;6.43;;;26.80;98.50;;;;;;4933252;29;20211;-77
2022/07/28 08:17:30;;;;;;;7.40;6.73;;;27.00;98.70;;;;;;4934494;29;20217;-77
2022/07/28 08:19:57;;;;;;;7.90;7.30;;;27.30;99.10;;;;;;4926626;29;20215;-78
2022/07/28 08:22:24;;;;;;;9.83;7.40;;;27.60;97.80;;;;;;4933835;29;20199;-78
2022/07/28 08:24:51;;;;;;;7.47;6.83;;;27.30;97.60;;;;;;4931948;29;20227;-78
2022/07/28 08:27:18;;;;;;;7.60;7.00;;;26.90;99.10;;;;;;4935670;29;20228;-78
2022/07/28 08:29:45;;;;;;;8.27;7.13;;;27.00;98.50;;;;;;4930266;29;20284;-76
2022/07/28 08:32:12;;;;;;;8.90;7.70;;;27.30;98.80;;;;;;4938046;29;20243;-78
2022/07/28 08:34:40;;;;;;;7.03;6.43;;;27.40;97.40;;;;;;4928523;29;20207;-78
2022/07/28 08:37:06;;;;;;;7.47;6.67;;;27.20;98.30;;;;;;4932572;29;20200;-78
2022/07/28 08:39:34;;;;;;;7.37;6.67;;;27.70;98.60;;;;;;4929358;29;20227;-77
2022/07/28 08:42:05;;;;;;;7.87;7.17;;;27.80;98.30;;;;;;4931999;29;20271;-77
2022/07/28 08:44:41;;;;;;;8.00;7.20;;;28.20;97.40;;;;;;4944345;29;20219;-78
2022/07/28 08:47:11;;;;;;;7.17;6.57;;;28.00;97.00;;;;;;4928873;29;20203;-78
2022/07/28 08:49:42;;;;;;;7.40;6.73;;;27.90;98.00;;;;;;4937277;29;20302;-77
2022/07/28 08:52:11;;;;;;;7.57;6.90;;;28.40;97.70;;;;;;4937018;29;20199;-78
2022/07/28 08:54:41;;;;;;;7.73;7.10;;;28.70;96.80;;;;;;4935122;29;20204;-79
2022/07/28 08:57:09;;;;;;;6.70;6.10;;;28.60;97.00;;;;;;4938997;29;20721;-78
2022/07/28 08:59:37;;;;;;;6.87;6.20;;;28.50;97.10;;;;;;4937344;29;20640;-78
2022/07/28 09:02:04;;;;;;;7.17;6.47;;;28.00;97.30;;;;;;4942028;29;20241;-78
2022/07/28 09:04:35;;;;;;;8.90;7.33;;;27.90;97.60;;;;;;4935166;29;20207;-78
2022/07/28 09:07:05;;;;;;;7.90;7.10;;;28.30;97.30;;;;;;4938343;29;20221;-78
2022/07/28 09:09:32;;;;;;;8.23;7.43;;;28.50;97.70;;;;;;4938642;29;20494;-78
2022/07/28 09:11:59;;;;;;;9.33;7.70;;;29.00;97.60;;;;;;4935592;29;20255;-79
2022/07/28 09:14:26;;;;;;;8.20;7.40;;;29.30;97.00;;;;;;4926220;29;20275;-78
2022/07/28 09:16:53;;;;;;;8.17;7.37;;;29.70;95.90;;;;;;4936509;29;20736;-78
2022/07/28 09:19:19;;;;;;;9.30;8.33;;;29.70;96.20;;;;;;4937224;29;20239;-78
2022/07/28 09:21:47;;;;;;;9.27;8.33;;;29.80;95.70;;;;;;4940387;29;20203;-78
2022/07/28 09:24:33;;;;;;;9.17;8.27;;;29.60;95.80;;;;;;4924239;29;20251;-78
2022/07/28 09:27:02;;;;;;;8.63;7.87;;;29.00;96.80;;;;;;4938297;29;20570;-78
2022/07/28 09:29:28;;;;;;;9.67;7.97;;;29.20;96.60;;;;;;4936884;29;20763;-79
2022/07/28 09:31:55;;;;;;;8.50;7.80;;;29.10;97.00;;;;;;4938371;29;20203;-78
2022/07/28 09:34:22;;;;;;;8.80;8.00;;;29.40;96.70;;;;;;4930909;29;20210;-77
2022/07/28 09:36:49;;;;;;;8.50;7.70;;;29.60;96.50;;;;;;4934635;29;20204;-78
2022/07/28 09:39:31;;;;;;;8.60;7.80;;;29.90;95.70;;;;;;4938074;29;20255;-78
2022/07/28 09:42:00;;;;;;;8.67;7.73;;;30.20;96.10;;;;;;4938548;29;20202;-78
2022/07/28 09:44:27;;;;;;;8.40;7.70;;;30.30;95.40;;;;;;4933996;29;20245;-78
2022/07/28 09:46:54;;;;;;;8.70;7.87;;;30.00;95.00;;;;;;4938180;29;20207;-78
2022/07/28 09:49:22;;;;;;;12.80;8.20;;;29.60;96.30;;;;;;4934067;29;20665;-78
2022/07/28 09:52:02;;;;;;;8.77;8.07;;;29.20;96.30;;;;;;4921973;29;20204;-78
2022/07/28 09:54:29;;;;;;;8.33;7.63;;;29.50;96.30;;;;;;4937337;29;20683;-78
2022/07/28 09:56:56;;;;;;;9.07;8.23;;;29.80;96.60;;;;;;4933423;29;20259;-79
2022/07/28 09:59:24;;;;;;;8.87;8.00;;;29.90;95.60;;;;;;4938193;29;20227;-78
2022/07/28 10:01:52;;;;;;;8.80;8.10;;;29.90;95.00;;;;;;4930313;29;20250;-77
2022/07/28 10:04:32;;;;;;;8.00;7.30;;;29.80;96.00;;;;;;4936955;29;20211;-78
2022/07/28 10:07:06;;;;;;;9.13;8.17;;;30.10;95.70;;;;;;4934217;29;20634;-78
2022/07/28 10:09:33;;;;;;;8.20;7.50;;;29.90;95.30;;;;;;4934062;29;20222;-78
2022/07/28 10:12:15;;;;;;;8.60;7.70;;;29.90;95.80;;;;;;4953429;29;20207;-79
2022/07/28 10:14:45;;;;;;;8.57;7.60;;;29.80;95.90;;;;;;4933449;29;20621;-79
2022/07/28 10:17:21;;;;;;;8.20;7.50;;;29.70;95.30;;;;;;4924681;29;20195;-78
2022/07/28 10:19:48;;;;;;;9.00;8.10;;;29.70;96.20;;;;;;4935389;29;20294;-78
2022/07/28 10:22:18;;;;;;;8.80;8.10;;;29.70;95.20;;;;;;4935317;29;20203;-78
2022/07/28 10:24:47;;;;;;;8.10;7.47;;;29.40;95.50;;;;;;4932939;29;20634;-78
2022/07/28 10:27:15;;;;;;;7.57;6.97;;;29.10;95.60;;;;;;4925631;29;20200;-78
2022/07/28 10:29:44;;;;;;;7.00;6.40;;;29.10;96.50;;;;;;4930324;29;20562;-78
2022/07/28 10:32:11;;;;;;;7.07;6.47;;;29.10;96.30;;;;;;4930234;29;20720;-78
2022/07/28 10:34:43;;;;;;;7.83;6.70;;;29.00;96.10;;;;;;4933989;29;20213;-78
2022/07/28 10:37:18;;;;;;;6.70;6.10;;;29.20;96.30;;;;;;4930760;29;20636;-78
2022/07/28 10:40:00;;;;;;;7.27;5.70;;;29.30;96.20;;;;;;4930883;29;20291;-77
2022/07/28 10:42:28;;;;;;;6.70;6.10;;;29.40;96.70;;;;;;4931620;29;20664;-78
2022/07/28 10:44:57;;;;;;;6.80;6.00;;;29.20;96.20;;;;;;4933726;29;20208;-78
2022/07/28 10:47:25;;;;;;;6.70;6.10;;;29.00;95.80;;;;;;4933968;29;20203;-77
2022/07/28 10:49:52;;;;;;;6.13;5.60;;;29.00;96.10;;;;;;4930378;29;20504;-78
2022/07/28 10:52:20;;;;;;;6.97;6.00;;;28.90;96.00;;;;;;4936397;29;20219;-78
2022/07/28 10:54:54;;;;;;;7.00;6.30;;;28.90;96.20;;;;;;4933795;29;20207;-78
2022/07/28 10:57:23;;;;;;;7.90;7.20;;;28.70;96.80;;;;;;4930151;29;20254;-77
2022/07/28 11:00:07;;;;;;;7.67;6.97;;;28.70;96.40;;;;;;4933597;29;20310;-78
2022/07/28 11:02:49;;;;;;;7.83;7.00;;;29.00;96.60;;;;;;4937522;29;20230;-77
2022/07/28 11:05:36;;;;;;;7.60;7.00;;;29.00;95.90;;;;;;4944834;29;20223;-78
2022/07/28 11:08:06;;;;;;;5.03;4.13;;;29.00;95.80;;;;;;4945908;29;20203;-78
2022/07/28 11:10:47;;;;;;;4.60;3.90;;;29.10;96.20;;;;;;4932443;29;20215;-78
2022/07/28 11:13:31;;;;;;;5.43;4.03;;;29.10;96.60;;;;;;4928363;29;20203;-77
2022/07/28 11:16:20;;;;;;;4.97;3.73;;;29.30;94.60;;;;;;4930249;29;20218;-78
2022/07/28 11:19:05;;;;;;;4.13;3.73;;;29.20;94.90;;;;;;4928951;29;20215;-78
2022/07/28 11:21:32;;;;;;;4.97;3.90;;;29.40;94.10;;;;;;4923673;29;20204;-78
2022/07/28 11:23:58;;;;;;;3.90;3.50;;;29.40;94.30;;;;;;4931154;29;20282;-78
2022/07/28 11:26:34;;;;;;;3.80;3.50;;;29.30;95.00;;;;;;4931928;29;20679;-78
2022/07/28 11:29:18;;;;;;;5.40;3.47;;;29.10;94.30;;;;;;4934590;29;20206;-78
2022/07/28 11:32:05;;;;;;;7.27;3.93;;;28.80;94.10;;;;;;4928779;29;20227;-77
2022/07/28 11:35:08;;;;;;;4.07;3.73;;;28.40;93.50;;;;;;4930551;29;20206;-78
2022/07/28 11:38:10;;;;;;;5.00;3.73;;;28.40;94.00;;;;;;4933470;29;20210;-78
2022/07/28 11:40:42;;;;;;;3.80;3.40;;;28.80;93.60;;;;;;4927996;29;20251;-78
2022/07/28 11:43:29;;;;;;;5.37;3.33;;;28.90;94.10;;;;;;4944926;29;20204;-77
2022/07/28 11:46:24;;;;;;;3.60;3.10;;;29.20;93.50;;;;;;4937360;29;20205;-78
2022/07/28 11:49:17;;;;;;;4.97;3.60;;;29.50;93.20;;;;;;4932288;29;20207;-77
2022/07/28 11:52:08;;;;;;;3.90;3.50;;;29.40;92.30;;;;;;4933012;29;20223;-78
2022/07/28 11:54:35;;;;;;;5.23;3.63;;;29.10;92.50;;;;;;4929727;29;20299;-77
2022/07/28 11:57:04;;;;;;;5.70;3.57;;;28.80;92.60;;;;;;4930668;29;20583;-78
2022/07/28 11:59:42;;;;;;;4.10;3.50;;;28.70;93.30;;;;;;4929656;29;20670;-78
2022/07/28 12:02:09;;;;;;;4.90;3.70;;;28.80;92.70;;;;;;4934133;29;20262;-78
2022/07/28 12:04:37;;;;;;;3.97;3.30;;;28.60;92.40;;;;;;4931714;29;20211;-78
2022/07/28 12:07:05;;;;;;;4.00;3.17;;;28.60;93.20;;;;;;4934949;29;20211;-78
2022/07/28 12:09:32;;;;;;;4.77;3.47;;;28.50;94.30;;;;;;4935180;29;20227;-77
2022/07/28 12:11:59;;;;;;;4.70;3.53;;;28.70;93.10;;;;;;4937079;29;20592;-77
2022/07/28 12:14:27;;;;;;;5.50;3.67;;;28.70;92.60;;;;;;4933917;29;20340;-77
2022/07/28 12:16:55;;;;;;;3.90;3.50;;;28.60;92.50;;;;;;4930520;29;20235;-78
2022/07/28 12:19:22;;;;;;;5.57;3.50;;;28.60;92.70;;;;;;4929760;29;20219;-77
2022/07/28 12:21:52;;;;;;;3.77;3.30;;;28.60;92.90;;;;;;4933199;29;20196;-78
2022/07/28 12:24:27;;;;;;;5.60;3.40;;;28.50;92.70;;;;;;4934815;29;20568;-78
2022/07/28 12:26:54;;;;;;;4.90;3.37;;;28.60;92.30;;;;;;4933714;29;20796;-78
2022/07/28 12:29:21;;;;;;;4.53;3.90;;;28.50;92.60;;;;;;4933073;29;20634;-78
2022/07/28 12:31:54;;;;;;;8.20;6.43;;;28.50;92.60;;;;;;4944340;29;20897;-78
2022/07/28 12:34:21;;;;;;;7.60;6.23;;;28.50;92.50;;;;;;4933095;29;20290;-77
2022/07/28 12:36:50;;;;;;;5.10;3.90;;;28.50;93.30;;;;;;4937809;29;20196;-77
2022/07/28 12:39:18;;;;;;;7.50;4.10;;;28.70;93.40;;;;;;4939166;29;20223;-78
2022/07/28 12:41:45;;;;;;;5.93;4.03;;;28.90;93.00;;;;;;4933067;29;20231;-78
2022/07/28 12:44:11;;;;;;;6.43;5.80;;;28.80;92.20;;;;;;4950127;29;20625;-78
2022/07/28 12:46:38;;;;;;;8.17;6.07;;;28.90;92.70;;;;;;4932550;29;20262;-78
2022/07/28 12:49:20;;;;;;;6.70;6.07;;;29.00;92.80;;;;;;4941210;29;20203;-79
2022/07/28 12:51:47;;;;;;;4.67;3.80;;;29.20;93.10;;;;;;4936731;29;20223;-78
2022/07/28 12:54:15;;;;;;;4.63;3.47;;;29.20;92.70;;;;;;4931010;29;20654;-79
2022/07/28 12:56:46;;;;;;;4.13;3.37;;;29.30;92.40;;;;;;4935385;29;20255;-78
2022/07/28 12:59:13;;;;;;;8.30;5.47;;;29.40;92.90;;;;;;4932172;29;20234;-77